sensor_id;sensor_type;location;lat;lon;timestamp;P1;durP1;ratioP1;P2;durP2;ratioP2
13067;SDS011;6600;51.362;6.686;2022-09-03T00:02:13;0.80;;;0.80;;
13067;SDS011;6600;51.362;6.686;2022-09-03T00:07:16;1.83;;;0.77;;
13067;SDS011;6600;51.362;6.686;2022-09-03T00:09:48;0.63;;;0.63;;
13067;SDS011;6600;51.362;6.686;2022-09-03T00:12:28;1.40;;;0.63;;
13067;SDS011;6600;51.362;6.686;2022-09-03T00:15:08;0.73;;;0.60;;
13067;SDS011;6600;51.362;6.686;2022-09-03T00:17:40;0.63;;;0.63;;
13067;SDS011;6600;51.362;6.686;2022-09-03T00:20:18;1.13;;;0.70;;
13067;SDS011;6600;51.362;6.686;2022-09-03T00:22:50;0.60;;;0.60;;
13067;SDS011;6600;51.362;6.686;2022-09-03T00:25:21;1.30;;;0.63;;
13067;SDS011;6600;51.362;6.686;2022-09-03T00:27:53;0.57;;;0.57;;
13067;SDS011;6600;51.362;6.686;2022-09-03T00:30:22;0.57;;;0.57;;
13067;SDS011;6600;51.362;6.686;2022-09-03T00:35:19;0.73;;;0.73;;
13067;SDS011;6600;51.362;6.686;2022-09-03T00:37:49;0.67;;;0.50;;
13067;SDS011;6600;51.362;6.686;2022-09-03T00:40:39;0.33;;;0.33;;
13067;SDS011;6600;51.362;6.686;2022-09-03T00:48:31;0.50;;;0.50;;
13067;SDS011;6600;51.362;6.686;2022-09-03T00:54:01;0.60;;;0.50;;
13067;SDS011;6600;51.362;6.686;2022-09-03T00:57:27;0.83;;;0.70;;
13067;SDS011;6600;51.362;6.686;2022-09-03T01:00:07;0.50;;;0.50;;
13067;SDS011;6600;51.362;6.686;2022-09-03T01:02:36;0.83;;;0.80;;
13067;SDS011;6600;51.362;6.686;2022-09-03T01:05:10;0.60;;;0.60;;
13067;SDS011;6600;51.362;6.686;2022-09-03T01:07:45;0.47;;;0.47;;
13067;SDS011;6600;51.362;6.686;2022-09-03T01:10:15;0.83;;;0.83;;
13067;SDS011;6600;51.362;6.686;2022-09-03T01:12:56;0.80;;;0.80;;
13067;SDS011;6600;51.362;6.686;2022-09-03T01:29:36;0.63;;;0.63;;
13067;SDS011;6600;51.362;6.686;2022-09-03T01:37:26;0.60;;;0.50;;
13067;SDS011;6600;51.362;6.686;2022-09-03T01:50:36;0.77;;;0.70;;
13067;SDS011;6600;51.362;6.686;2022-09-03T01:56:18;0.50;;;0.50;;
13067;SDS011;6600;51.362;6.686;2022-09-03T02:01:28;0.87;;;0.53;;
13067;SDS011;6600;51.362;6.686;2022-09-03T02:03:57;0.50;;;0.50;;
13067;SDS011;6600;51.362;6.686;2022-09-03T02:06:24;0.40;;;0.40;;
13067;SDS011;6600;51.362;6.686;2022-09-03T02:08:55;0.50;;;0.50;;
13067;SDS011;6600;51.362;6.686;2022-09-03T02:11:21;0.67;;;0.67;;
13067;SDS011;6600;51.362;6.686;2022-09-03T02:13:48;0.53;;;0.53;;
13067;SDS011;6600;51.362;6.686;2022-09-03T02:16:23;0.33;;;0.33;;
13067;SDS011;6600;51.362;6.686;2022-09-03T02:19:03;1.03;;;0.60;;
13067;SDS011;6600;51.362;6.686;2022-09-03T02:21:38;0.50;;;0.50;;
13067;SDS011;6600;51.362;6.686;2022-09-03T02:24:07;0.43;;;0.43;;
13067;SDS011;6600;51.362;6.686;2022-09-03T02:26:33;0.63;;;0.63;;
13067;SDS011;6600;51.362;6.686;2022-09-03T02:29:00;0.80;;;0.73;;
13067;SDS011;6600;51.362;6.686;2022-09-03T02:31:26;0.50;;;0.50;;
13067;SDS011;6600;51.362;6.686;2022-09-03T02:33:52;0.77;;;0.60;;
13067;SDS011;6600;51.362;6.686;2022-09-03T02:36:20;0.43;;;0.43;;
13067;SDS011;6600;51.362;6.686;2022-09-03T02:38:51;0.63;;;0.63;;
13067;SDS011;6600;51.362;6.686;2022-09-03T02:41:16;0.43;;;0.43;;
13067;SDS011;6600;51.362;6.686;2022-09-03T02:43:52;0.67;;;0.67;;
13067;SDS011;6600;51.362;6.686;2022-09-03T02:46:24;0.87;;;0.70;;
13067;SDS011;6600;51.362;6.686;2022-09-03T02:48:56;0.70;;;0.53;;
13067;SDS011;6600;51.362;6.686;2022-09-03T02:51:21;0.23;;;0.23;;
13067;SDS011;6600;51.362;6.686;2022-09-03T02:53:46;0.83;;;0.67;;
13067;SDS011;6600;51.362;6.686;2022-09-03T02:56:12;0.80;;;0.50;;
13067;SDS011;6600;51.362;6.686;2022-09-03T02:58:37;2.07;;;0.40;;
13067;SDS011;6600;51.362;6.686;2022-09-03T03:01:03;0.77;;;0.63;;
13067;SDS011;6600;51.362;6.686;2022-09-03T03:03:29;0.40;;;0.33;;
13067;SDS011;6600;51.362;6.686;2022-09-03T03:05:55;0.60;;;0.50;;
13067;SDS011;6600;51.362;6.686;2022-09-03T03:08:25;0.60;;;0.60;;
13067;SDS011;6600;51.362;6.686;2022-09-03T03:10:53;2.10;;;0.50;;
13067;SDS011;6600;51.362;6.686;2022-09-03T03:13:27;0.50;;;0.50;;
13067;SDS011;6600;51.362;6.686;2022-09-03T03:15:57;0.60;;;0.50;;
13067;SDS011;6600;51.362;6.686;2022-09-03T03:18:23;1.13;;;0.43;;
13067;SDS011;6600;51.362;6.686;2022-09-03T03:20:49;0.50;;;0.50;;
13067;SDS011;6600;51.362;6.686;2022-09-03T03:23:14;0.60;;;0.57;;
13067;SDS011;6600;51.362;6.686;2022-09-03T03:25:40;0.40;;;0.40;;
13067;SDS011;6600;51.362;6.686;2022-09-03T03:28:06;1.57;;;0.80;;
13067;SDS011;6600;51.362;6.686;2022-09-03T03:30:32;1.03;;;0.90;;
13067;SDS011;6600;51.362;6.686;2022-09-03T03:32:57;0.60;;;0.60;;
13067;SDS011;6600;51.362;6.686;2022-09-03T03:35:23;0.87;;;0.60;;
13067;SDS011;6600;51.362;6.686;2022-09-03T03:37:49;0.83;;;0.50;;
13067;SDS011;6600;51.362;6.686;2022-09-03T03:40:15;0.80;;;0.60;;
13067;SDS011;6600;51.362;6.686;2022-09-03T03:42:40;0.73;;;0.73;;
13067;SDS011;6600;51.362;6.686;2022-09-03T03:45:06;0.47;;;0.47;;
13067;SDS011;6600;51.362;6.686;2022-09-03T03:47:34;0.87;;;0.70;;
13067;SDS011;6600;51.362;6.686;2022-09-03T03:50:00;1.23;;;0.60;;
13067;SDS011;6600;51.362;6.686;2022-09-03T03:52:25;0.50;;;0.50;;
13067;SDS011;6600;51.362;6.686;2022-09-03T03:54:51;1.40;;;0.50;;
13067;SDS011;6600;51.362;6.686;2022-09-03T03:57:17;0.60;;;0.60;;
13067;SDS011;6600;51.362;6.686;2022-09-03T03:59:44;0.60;;;0.40;;
13067;SDS011;6600;51.362;6.686;2022-09-03T04:02:10;1.20;;;0.77;;
13067;SDS011;6600;51.362;6.686;2022-09-03T04:04:36;0.47;;;0.47;;
13067;SDS011;6600;51.362;6.686;2022-09-03T04:07:01;0.50;;;0.50;;
13067;SDS011;6600;51.362;6.686;2022-09-03T04:09:26;0.50;;;0.50;;
13067;SDS011;6600;51.362;6.686;2022-09-03T04:11:52;0.83;;;0.70;;
13067;SDS011;6600;51.362;6.686;2022-09-03T04:14:17;1.40;;;0.57;;
13067;SDS011;6600;51.362;6.686;2022-09-03T04:16:42;0.80;;;0.80;;
13067;SDS011;6600;51.362;6.686;2022-09-03T04:19:11;0.47;;;0.47;;
13067;SDS011;6600;51.362;6.686;2022-09-03T04:21:37;1.00;;;0.73;;
13067;SDS011;6600;51.362;6.686;2022-09-03T04:24:03;0.60;;;0.50;;
13067;SDS011;6600;51.362;6.686;2022-09-03T04:26:30;0.40;;;0.40;;
13067;SDS011;6600;51.362;6.686;2022-09-03T04:29:00;0.60;;;0.60;;
13067;SDS011;6600;51.362;6.686;2022-09-03T04:31:30;1.17;;;0.80;;
13067;SDS011;6600;51.362;6.686;2022-09-03T04:33:57;0.60;;;0.50;;
13067;SDS011;6600;51.362;6.686;2022-09-03T04:36:23;0.40;;;0.40;;
13067;SDS011;6600;51.362;6.686;2022-09-03T04:38:51;0.67;;;0.67;;
13067;SDS011;6600;51.362;6.686;2022-09-03T04:41:21;0.43;;;0.43;;
13067;SDS011;6600;51.362;6.686;2022-09-03T04:43:50;0.50;;;0.50;;
13067;SDS011;6600;51.362;6.686;2022-09-03T04:46:17;0.50;;;0.50;;
13067;SDS011;6600;51.362;6.686;2022-09-03T04:48:46;0.60;;;0.50;;
13067;SDS011;6600;51.362;6.686;2022-09-03T04:51:15;1.57;;;0.60;;
13067;SDS011;6600;51.362;6.686;2022-09-03T04:53:44;0.60;;;0.60;;
13067;SDS011;6600;51.362;6.686;2022-09-03T04:56:11;0.50;;;0.50;;
13067;SDS011;6600;51.362;6.686;2022-09-03T04:58:44;0.40;;;0.40;;
13067;SDS011;6600;51.362;6.686;2022-09-03T05:01:11;0.80;;;0.77;;
13067;SDS011;6600;51.362;6.686;2022-09-03T05:03:40;0.57;;;0.53;;
13067;SDS011;6600;51.362;6.686;2022-09-03T05:06:05;0.60;;;0.60;;
13067;SDS011;6600;51.362;6.686;2022-09-03T05:08:32;0.50;;;0.50;;
13067;SDS011;6600;51.362;6.686;2022-09-03T05:11:00;1.07;;;0.60;;
13067;SDS011;6600;51.362;6.686;2022-09-03T05:13:27;1.80;;;0.60;;
13067;SDS011;6600;51.362;6.686;2022-09-03T05:15:52;1.63;;;0.73;;
13067;SDS011;6600;51.362;6.686;2022-09-03T05:18:28;0.80;;;0.80;;
13067;SDS011;6600;51.362;6.686;2022-09-03T05:21:00;0.63;;;0.60;;
13067;SDS011;6600;51.362;6.686;2022-09-03T05:23:30;0.93;;;0.60;;
13067;SDS011;6600;51.362;6.686;2022-09-03T05:26:00;0.40;;;0.40;;
13067;SDS011;6600;51.362;6.686;2022-09-03T05:28:27;0.47;;;0.47;;
13067;SDS011;6600;51.362;6.686;2022-09-03T05:31:00;0.93;;;0.40;;
13067;SDS011;6600;51.362;6.686;2022-09-03T05:33:33;0.80;;;0.80;;
13067;SDS011;6600;51.362;6.686;2022-09-03T05:36:04;0.50;;;0.50;;
13067;SDS011;6600;51.362;6.686;2022-09-03T05:38:30;0.60;;;0.60;;
13067;SDS011;6600;51.362;6.686;2022-09-03T05:40:59;0.57;;;0.57;;
13067;SDS011;6600;51.362;6.686;2022-09-03T05:43:26;0.90;;;0.60;;
13067;SDS011;6600;51.362;6.686;2022-09-03T05:45:59;0.80;;;0.50;;
13067;SDS011;6600;51.362;6.686;2022-09-03T05:48:26;0.50;;;0.50;;
13067;SDS011;6600;51.362;6.686;2022-09-03T05:51:05;2.07;;;0.67;;
13067;SDS011;6600;51.362;6.686;2022-09-03T05:53:33;0.50;;;0.50;;
13067;SDS011;6600;51.362;6.686;2022-09-03T05:56:01;1.57;;;0.53;;
13067;SDS011;6600;51.362;6.686;2022-09-03T05:58:34;1.10;;;0.80;;
13067;SDS011;6600;51.362;6.686;2022-09-03T06:03:34;0.93;;;0.63;;
13067;SDS011;6600;51.362;6.686;2022-09-03T06:06:01;2.00;;;0.70;;
13067;SDS011;6600;51.362;6.686;2022-09-03T06:08:26;1.00;;;0.90;;
13067;SDS011;6600;51.362;6.686;2022-09-03T06:10:56;0.50;;;0.50;;
13067;SDS011;6600;51.362;6.686;2022-09-03T06:13:23;1.10;;;0.50;;
13067;SDS011;6600;51.362;6.686;2022-09-03T06:15:48;0.43;;;0.43;;
13067;SDS011;6600;51.362;6.686;2022-09-03T06:18:14;4.07;;;0.77;;
13067;SDS011;6600;51.362;6.686;2022-09-03T06:20:39;1.50;;;0.90;;
13067;SDS011;6600;51.362;6.686;2022-09-03T06:23:04;2.30;;;0.50;;
13067;SDS011;6600;51.362;6.686;2022-09-03T06:25:30;1.23;;;0.90;;
13067;SDS011;6600;51.362;6.686;2022-09-03T06:27:56;0.80;;;0.70;;
13067;SDS011;6600;51.362;6.686;2022-09-03T06:30:21;1.10;;;1.00;;
13067;SDS011;6600;51.362;6.686;2022-09-03T06:32:48;0.70;;;0.40;;
13067;SDS011;6600;51.362;6.686;2022-09-03T06:35:18;0.60;;;0.60;;
13067;SDS011;6600;51.362;6.686;2022-09-03T06:37:44;0.50;;;0.50;;
13067;SDS011;6600;51.362;6.686;2022-09-03T06:40:10;0.60;;;0.60;;
13067;SDS011;6600;51.362;6.686;2022-09-03T06:42:53;0.63;;;0.53;;
13067;SDS011;6600;51.362;6.686;2022-09-03T06:45:20;0.70;;;0.70;;
13067;SDS011;6600;51.362;6.686;2022-09-03T06:47:45;0.77;;;0.57;;
13067;SDS011;6600;51.362;6.686;2022-09-03T06:50:10;0.60;;;0.60;;
13067;SDS011;6600;51.362;6.686;2022-09-03T06:52:36;0.60;;;0.60;;
13067;SDS011;6600;51.362;6.686;2022-09-03T06:55:01;0.80;;;0.80;;
13067;SDS011;6600;51.362;6.686;2022-09-03T06:57:27;0.60;;;0.60;;
13067;SDS011;6600;51.362;6.686;2022-09-03T06:59:53;0.73;;;0.60;;
13067;SDS011;6600;51.362;6.686;2022-09-03T07:02:19;0.77;;;0.77;;
13067;SDS011;6600;51.362;6.686;2022-09-03T07:04:46;0.50;;;0.50;;
13067;SDS011;6600;51.362;6.686;2022-09-03T07:07:13;0.60;;;0.60;;
13067;SDS011;6600;51.362;6.686;2022-09-03T07:09:40;1.47;;;0.80;;
13067;SDS011;6600;51.362;6.686;2022-09-03T07:12:05;0.50;;;0.50;;
13067;SDS011;6600;51.362;6.686;2022-09-03T07:14:31;0.97;;;0.70;;
13067;SDS011;6600;51.362;6.686;2022-09-03T07:16:57;0.43;;;0.43;;
13067;SDS011;6600;51.362;6.686;2022-09-03T07:19:22;0.63;;;0.63;;
13067;SDS011;6600;51.362;6.686;2022-09-03T07:21:47;0.67;;;0.60;;
13067;SDS011;6600;51.362;6.686;2022-09-03T07:24:13;0.60;;;0.60;;
13067;SDS011;6600;51.362;6.686;2022-09-03T07:26:39;0.80;;;0.80;;
13067;SDS011;6600;51.362;6.686;2022-09-03T07:29:10;0.77;;;0.60;;
13067;SDS011;6600;51.362;6.686;2022-09-03T07:31:37;0.67;;;0.67;;
13067;SDS011;6600;51.362;6.686;2022-09-03T07:34:05;0.60;;;0.60;;
13067;SDS011;6600;51.362;6.686;2022-09-03T07:36:42;0.37;;;0.37;;
13067;SDS011;6600;51.362;6.686;2022-09-03T07:39:11;0.50;;;0.50;;
13067;SDS011;6600;51.362;6.686;2022-09-03T07:41:39;0.67;;;0.67;;
13067;SDS011;6600;51.362;6.686;2022-09-03T07:44:07;0.97;;;0.60;;
13067;SDS011;6600;51.362;6.686;2022-09-03T07:46:33;0.53;;;0.53;;
13067;SDS011;6600;51.362;6.686;2022-09-03T07:49:00;0.60;;;0.60;;
13067;SDS011;6600;51.362;6.686;2022-09-03T07:51:27;0.50;;;0.50;;
13067;SDS011;6600;51.362;6.686;2022-09-03T07:53:55;0.50;;;0.50;;
13067;SDS011;6600;51.362;6.686;2022-09-03T07:56:23;0.43;;;0.43;;
13067;SDS011;6600;51.362;6.686;2022-09-03T07:58:50;0.67;;;0.67;;
13067;SDS011;6600;51.362;6.686;2022-09-03T08:01:17;0.60;;;0.60;;
13067;SDS011;6600;51.362;6.686;2022-09-03T08:03:45;0.60;;;0.60;;
13067;SDS011;6600;51.362;6.686;2022-09-03T08:06:12;0.70;;;0.70;;
13067;SDS011;6600;51.362;6.686;2022-09-03T08:08:39;0.70;;;0.70;;
13067;SDS011;6600;51.362;6.686;2022-09-03T08:11:05;0.53;;;0.53;;
13067;SDS011;6600;51.362;6.686;2022-09-03T08:13:48;1.00;;;0.60;;
13067;SDS011;6600;51.362;6.686;2022-09-03T08:16:18;0.50;;;0.50;;
13067;SDS011;6600;51.362;6.686;2022-09-03T08:18:44;0.80;;;0.80;;
13067;SDS011;6600;51.362;6.686;2022-09-03T08:21:14;0.50;;;0.50;;
13067;SDS011;6600;51.362;6.686;2022-09-03T08:23:43;1.10;;;0.60;;
13067;SDS011;6600;51.362;6.686;2022-09-03T08:26:10;0.70;;;0.70;;
13067;SDS011;6600;51.362;6.686;2022-09-03T08:28:36;0.63;;;0.63;;
13067;SDS011;6600;51.362;6.686;2022-09-03T08:31:06;0.50;;;0.50;;
13067;SDS011;6600;51.362;6.686;2022-09-03T08:33:39;0.67;;;0.67;;
13067;SDS011;6600;51.362;6.686;2022-09-03T08:38:32;1.00;;;0.90;;
13067;SDS011;6600;51.362;6.686;2022-09-03T08:41:02;0.57;;;0.57;;
13067;SDS011;6600;51.362;6.686;2022-09-03T08:43:29;0.93;;;0.60;;
13067;SDS011;6600;51.362;6.686;2022-09-03T08:45:57;0.50;;;0.50;;
13067;SDS011;6600;51.362;6.686;2022-09-03T08:48:24;0.37;;;0.37;;
13067;SDS011;6600;51.362;6.686;2022-09-03T08:50:52;0.77;;;0.60;;
13067;SDS011;6600;51.362;6.686;2022-09-03T08:55:49;0.70;;;0.70;;
13067;SDS011;6600;51.362;6.686;2022-09-03T08:58:18;0.60;;;0.60;;
13067;SDS011;6600;51.362;6.686;2022-09-03T09:06:36;0.73;;;0.73;;
13067;SDS011;6600;51.362;6.686;2022-09-03T09:17:07;0.60;;;0.60;;
13067;SDS011;6600;51.362;6.686;2022-09-03T09:22:31;0.50;;;0.50;;
13067;SDS011;6600;51.362;6.686;2022-09-03T09:25:03;0.60;;;0.60;;
13067;SDS011;6600;51.362;6.686;2022-09-03T09:27:37;0.70;;;0.70;;
13067;SDS011;6600;51.362;6.686;2022-09-03T09:30:10;0.60;;;0.60;;
13067;SDS011;6600;51.362;6.686;2022-09-03T09:32:40;0.70;;;0.70;;
13067;SDS011;6600;51.362;6.686;2022-09-03T09:35:09;2.20;;;0.90;;
13067;SDS011;6600;51.362;6.686;2022-09-03T09:37:45;0.80;;;0.80;;
13067;SDS011;6600;51.362;6.686;2022-09-03T09:40:22;0.83;;;0.83;;
13067;SDS011;6600;51.362;6.686;2022-09-03T09:42:50;0.80;;;0.80;;
13067;SDS011;6600;51.362;6.686;2022-09-03T09:45:22;0.73;;;0.73;;
13067;SDS011;6600;51.362;6.686;2022-09-03T09:47:48;0.70;;;0.70;;
13067;SDS011;6600;51.362;6.686;2022-09-03T09:50:19;1.00;;;1.00;;
13067;SDS011;6600;51.362;6.686;2022-09-03T09:52:46;0.70;;;0.70;;
13067;SDS011;6600;51.362;6.686;2022-09-03T09:55:18;0.77;;;0.70;;
13067;SDS011;6600;51.362;6.686;2022-09-03T09:57:44;0.80;;;0.80;;
13067;SDS011;6600;51.362;6.686;2022-09-03T10:00:11;0.90;;;0.90;;
13067;SDS011;6600;51.362;6.686;2022-09-03T10:02:49;0.70;;;0.70;;
13067;SDS011;6600;51.362;6.686;2022-09-03T10:05:25;0.70;;;0.70;;
13067;SDS011;6600;51.362;6.686;2022-09-03T10:08:04;0.80;;;0.80;;
13067;SDS011;6600;51.362;6.686;2022-09-03T10:10:43;1.07;;;0.90;;
13067;SDS011;6600;51.362;6.686;2022-09-03T10:13:17;0.93;;;0.93;;
13067;SDS011;6600;51.362;6.686;2022-09-03T10:15:48;1.17;;;1.10;;
13067;SDS011;6600;51.362;6.686;2022-09-03T10:18:32;0.80;;;0.80;;
13067;SDS011;6600;51.362;6.686;2022-09-03T10:26:32;0.80;;;0.80;;
13067;SDS011;6600;51.362;6.686;2022-09-03T10:29:01;0.77;;;0.77;;
13067;SDS011;6600;51.362;6.686;2022-09-03T10:36:59;0.97;;;0.97;;
13067;SDS011;6600;51.362;6.686;2022-09-03T10:50:24;0.90;;;0.90;;
13067;SDS011;6600;51.362;6.686;2022-09-03T10:56:04;0.80;;;0.80;;
13067;SDS011;6600;51.362;6.686;2022-09-03T11:06:53;1.17;;;0.87;;
13067;SDS011;6600;51.362;6.686;2022-09-03T11:09:28;0.60;;;0.60;;
13067;SDS011;6600;51.362;6.686;2022-09-03T11:12:05;1.20;;;0.80;;
13067;SDS011;6600;51.362;6.686;2022-09-03T11:14:43;1.33;;;0.90;;
13067;SDS011;6600;51.362;6.686;2022-09-03T11:17:12;1.60;;;1.00;;
13067;SDS011;6600;51.362;6.686;2022-09-03T11:19:49;1.00;;;1.00;;
13067;SDS011;6600;51.362;6.686;2022-09-03T11:22:20;1.83;;;1.30;;
13067;SDS011;6600;51.362;6.686;2022-09-03T11:24:49;1.10;;;1.10;;
13067;SDS011;6600;51.362;6.686;2022-09-03T11:35:14;1.10;;;1.00;;
13067;SDS011;6600;51.362;6.686;2022-09-03T11:37:47;1.20;;;1.10;;
13067;SDS011;6600;51.362;6.686;2022-09-03T11:40:18;1.23;;;1.13;;
13067;SDS011;6600;51.362;6.686;2022-09-03T11:42:46;1.30;;;1.20;;
13067;SDS011;6600;51.362;6.686;2022-09-03T11:47:49;1.37;;;1.27;;
13067;SDS011;6600;51.362;6.686;2022-09-03T11:50:17;1.23;;;1.13;;
13067;SDS011;6600;51.362;6.686;2022-09-03T11:52:46;1.37;;;1.30;;
13067;SDS011;6600;51.362;6.686;2022-09-03T11:55:26;1.20;;;1.10;;
13067;SDS011;6600;51.362;6.686;2022-09-03T11:57:56;1.23;;;1.20;;
13067;SDS011;6600;51.362;6.686;2022-09-03T12:00:22;1.13;;;1.00;;
13067;SDS011;6600;51.362;6.686;2022-09-03T12:05:30;1.00;;;1.00;;
13067;SDS011;6600;51.362;6.686;2022-09-03T12:10:48;1.00;;;1.00;;
13067;SDS011;6600;51.362;6.686;2022-09-03T12:18:50;1.07;;;1.07;;
13067;SDS011;6600;51.362;6.686;2022-09-03T12:21:21;0.90;;;0.90;;
13067;SDS011;6600;51.362;6.686;2022-09-03T12:23:48;0.90;;;0.90;;
13067;SDS011;6600;51.362;6.686;2022-09-03T12:26:18;1.30;;;1.20;;
13067;SDS011;6600;51.362;6.686;2022-09-03T12:28:46;1.17;;;1.10;;
13067;SDS011;6600;51.362;6.686;2022-09-03T12:31:16;1.13;;;1.13;;
13067;SDS011;6600;51.362;6.686;2022-09-03T12:33:52;0.83;;;0.83;;
13067;SDS011;6600;51.362;6.686;2022-09-03T12:36:20;1.30;;;1.20;;
13067;SDS011;6600;51.362;6.686;2022-09-03T12:38:47;1.00;;;1.00;;
13067;SDS011;6600;51.362;6.686;2022-09-03T12:41:23;1.10;;;1.10;;
13067;SDS011;6600;51.362;6.686;2022-09-03T12:43:55;1.27;;;1.27;;
13067;SDS011;6600;51.362;6.686;2022-09-03T12:46:23;1.43;;;0.83;;
13067;SDS011;6600;51.362;6.686;2022-09-03T12:48:53;1.30;;;1.20;;
13067;SDS011;6600;51.362;6.686;2022-09-03T12:51:19;1.50;;;1.00;;
13067;SDS011;6600;51.362;6.686;2022-09-03T12:53:45;1.20;;;1.10;;
13067;SDS011;6600;51.362;6.686;2022-09-03T12:56:11;0.97;;;0.90;;
13067;SDS011;6600;51.362;6.686;2022-09-03T12:58:45;1.07;;;1.00;;
13067;SDS011;6600;51.362;6.686;2022-09-03T13:01:21;1.00;;;1.00;;
13067;SDS011;6600;51.362;6.686;2022-09-03T13:03:50;1.00;;;1.00;;
13067;SDS011;6600;51.362;6.686;2022-09-03T13:06:22;1.27;;;1.17;;
13067;SDS011;6600;51.362;6.686;2022-09-03T13:08:54;1.17;;;1.17;;
13067;SDS011;6600;51.362;6.686;2022-09-03T13:11:24;1.10;;;1.10;;
13067;SDS011;6600;51.362;6.686;2022-09-03T13:13:54;1.13;;;1.10;;
13067;SDS011;6600;51.362;6.686;2022-09-03T13:22:00;1.60;;;1.50;;
13067;SDS011;6600;51.362;6.686;2022-09-03T13:32:22;1.40;;;1.30;;
13067;SDS011;6600;51.362;6.686;2022-09-03T13:35:09;1.43;;;1.33;;
13067;SDS011;6600;51.362;6.686;2022-09-03T13:37:47;1.40;;;1.30;;
13067;SDS011;6600;51.362;6.686;2022-09-03T13:40:22;1.60;;;1.50;;
13067;SDS011;6600;51.362;6.686;2022-09-03T13:42:54;1.40;;;1.30;;
13067;SDS011;6600;51.362;6.686;2022-09-03T13:48:23;1.50;;;1.37;;
13067;SDS011;6600;51.362;6.686;2022-09-03T14:05:08;1.20;;;1.20;;
13067;SDS011;6600;51.362;6.686;2022-09-03T14:07:47;1.10;;;1.10;;
13067;SDS011;6600;51.362;6.686;2022-09-03T14:16:05;1.10;;;1.10;;
13067;SDS011;6600;51.362;6.686;2022-09-03T14:24:20;1.10;;;1.00;;
13067;SDS011;6600;51.362;6.686;2022-09-03T14:26:56;1.33;;;0.90;;
13067;SDS011;6600;51.362;6.686;2022-09-03T14:29:27;1.20;;;1.20;;
13067;SDS011;6600;51.362;6.686;2022-09-03T14:37:38;1.43;;;1.33;;
13067;SDS011;6600;51.362;6.686;2022-09-03T14:51:43;1.80;;;1.27;;
13067;SDS011;6600;51.362;6.686;2022-09-03T14:54:30;1.13;;;1.10;;
13067;SDS011;6600;51.362;6.686;2022-09-03T15:02:40;1.40;;;1.30;;
13067;SDS011;6600;51.362;6.686;2022-09-03T15:05:34;1.27;;;1.17;;
13067;SDS011;6600;51.362;6.686;2022-09-03T15:10:49;1.30;;;1.20;;
13067;SDS011;6600;51.362;6.686;2022-09-03T15:13:26;1.60;;;1.50;;
13067;SDS011;6600;51.362;6.686;2022-09-03T15:29:31;1.27;;;1.20;;
13067;SDS011;6600;51.362;6.686;2022-09-03T15:35:29;1.67;;;1.30;;
13067;SDS011;6600;51.362;6.686;2022-09-03T15:43:10;1.33;;;1.23;;
13067;SDS011;6600;51.362;6.686;2022-09-03T15:48:33;1.50;;;1.40;;
13067;SDS011;6600;51.362;6.686;2022-09-03T15:51:25;2.00;;;1.33;;
13067;SDS011;6600;51.362;6.686;2022-09-03T16:01:58;1.30;;;1.20;;
13067;SDS011;6600;51.362;6.686;2022-09-03T16:04:41;1.37;;;1.10;;
13067;SDS011;6600;51.362;6.686;2022-09-03T16:15:26;1.70;;;1.60;;
13067;SDS011;6600;51.362;6.686;2022-09-03T16:17:57;1.60;;;1.50;;
13067;SDS011;6600;51.362;6.686;2022-09-03T16:20:42;1.30;;;1.20;;
13067;SDS011;6600;51.362;6.686;2022-09-03T16:23:22;1.90;;;1.30;;
13067;SDS011;6600;51.362;6.686;2022-09-03T16:25:56;0.93;;;0.93;;
13067;SDS011;6600;51.362;6.686;2022-09-03T16:33:27;1.50;;;1.40;;
13067;SDS011;6600;51.362;6.686;2022-09-03T16:46:54;1.87;;;1.30;;
13067;SDS011;6600;51.362;6.686;2022-09-03T16:52:11;1.17;;;1.17;;
13067;SDS011;6600;51.362;6.686;2022-09-03T17:00:19;1.00;;;1.00;;
13067;SDS011;6600;51.362;6.686;2022-09-03T17:05:32;1.20;;;1.07;;
13067;SDS011;6600;51.362;6.686;2022-09-03T17:19:22;1.83;;;1.40;;
13067;SDS011;6600;51.362;6.686;2022-09-03T17:38:18;1.20;;;1.10;;
13067;SDS011;6600;51.362;6.686;2022-09-03T17:41:04;1.10;;;1.10;;
13067;SDS011;6600;51.362;6.686;2022-09-03T17:43:55;0.90;;;0.90;;
13067;SDS011;6600;51.362;6.686;2022-09-03T17:46:46;1.13;;;1.07;;
13067;SDS011;6600;51.362;6.686;2022-09-03T17:52:11;1.10;;;0.90;;
13067;SDS011;6600;51.362;6.686;2022-09-03T17:54:52;1.30;;;1.20;;
13067;SDS011;6600;51.362;6.686;2022-09-03T17:57:24;1.40;;;1.30;;
13067;SDS011;6600;51.362;6.686;2022-09-03T18:00:08;1.40;;;1.30;;
13067;SDS011;6600;51.362;6.686;2022-09-03T18:05:18;1.03;;;1.03;;
13067;SDS011;6600;51.362;6.686;2022-09-03T18:17:02;1.00;;;1.00;;
13067;SDS011;6600;51.362;6.686;2022-09-03T18:19:53;1.27;;;1.17;;
13067;SDS011;6600;51.362;6.686;2022-09-03T18:23:02;1.17;;;1.00;;
13067;SDS011;6600;51.362;6.686;2022-09-03T18:25:55;0.90;;;0.90;;
13067;SDS011;6600;51.362;6.686;2022-09-03T18:31:52;1.23;;;1.13;;
13067;SDS011;6600;51.362;6.686;2022-09-03T18:34:36;1.80;;;1.23;;
13067;SDS011;6600;51.362;6.686;2022-09-03T18:37:22;1.30;;;1.20;;
13067;SDS011;6600;51.362;6.686;2022-09-03T18:40:08;1.43;;;1.33;;
13067;SDS011;6600;51.362;6.686;2022-09-03T18:52:24;1.03;;;1.03;;
13067;SDS011;6600;51.362;6.686;2022-09-03T18:55:18;1.17;;;1.13;;
13067;SDS011;6600;51.362;6.686;2022-09-03T19:10:27;0.97;;;0.97;;
13067;SDS011;6600;51.362;6.686;2022-09-03T19:13:27;1.80;;;1.00;;
13067;SDS011;6600;51.362;6.686;2022-09-03T19:19:39;0.93;;;0.93;;
13067;SDS011;6600;51.362;6.686;2022-09-03T19:22:39;1.23;;;1.03;;
13067;SDS011;6600;51.362;6.686;2022-09-03T19:25:25;1.13;;;1.13;;
13067;SDS011;6600;51.362;6.686;2022-09-03T19:37:45;0.83;;;0.83;;
13067;SDS011;6600;51.362;6.686;2022-09-03T19:44:13;1.30;;;1.20;;
13067;SDS011;6600;51.362;6.686;2022-09-03T19:47:01;0.77;;;0.77;;
13067;SDS011;6600;51.362;6.686;2022-09-03T19:52:37;1.30;;;1.20;;
13067;SDS011;6600;51.362;6.686;2022-09-03T19:55:32;1.00;;;0.90;;
13067;SDS011;6600;51.362;6.686;2022-09-03T19:58:22;1.07;;;0.97;;
13067;SDS011;6600;51.362;6.686;2022-09-03T20:01:07;1.17;;;0.90;;
13067;SDS011;6600;51.362;6.686;2022-09-03T20:03:53;0.97;;;0.87;;
13067;SDS011;6600;51.362;6.686;2022-09-03T20:06:41;1.80;;;1.23;;
13067;SDS011;6600;51.362;6.686;2022-09-03T20:09:29;0.80;;;0.80;;
13067;SDS011;6600;51.362;6.686;2022-09-03T20:12:18;0.90;;;0.90;;
13067;SDS011;6600;51.362;6.686;2022-09-03T20:14:47;2.07;;;1.47;;
13067;SDS011;6600;51.362;6.686;2022-09-03T20:23:19;0.83;;;0.83;;
13067;SDS011;6600;51.362;6.686;2022-09-03T20:26:28;0.93;;;0.87;;
13067;SDS011;6600;51.362;6.686;2022-09-03T20:31:36;1.47;;;0.90;;
13067;SDS011;6600;51.362;6.686;2022-09-03T20:34:08;1.00;;;1.00;;
13067;SDS011;6600;51.362;6.686;2022-09-03T20:36:39;0.90;;;0.90;;
13067;SDS011;6600;51.362;6.686;2022-09-03T20:39:20;2.33;;;1.10;;
13067;SDS011;6600;51.362;6.686;2022-09-03T20:52:49;0.90;;;0.90;;
13067;SDS011;6600;51.362;6.686;2022-09-03T20:55:41;1.13;;;1.03;;
13067;SDS011;6600;51.362;6.686;2022-09-03T21:07:25;1.20;;;1.10;;
13067;SDS011;6600;51.362;6.686;2022-09-03T21:10:07;0.80;;;0.80;;
13067;SDS011;6600;51.362;6.686;2022-09-03T21:13:09;0.80;;;0.80;;
13067;SDS011;6600;51.362;6.686;2022-09-03T21:15:48;0.80;;;0.80;;
13067;SDS011;6600;51.362;6.686;2022-09-03T21:18:47;1.13;;;1.03;;
13067;SDS011;6600;51.362;6.686;2022-09-03T21:21:23;1.20;;;0.73;;
13067;SDS011;6600;51.362;6.686;2022-09-03T21:26:44;1.03;;;0.97;;
13067;SDS011;6600;51.362;6.686;2022-09-03T21:31:46;0.90;;;0.90;;
13067;SDS011;6600;51.362;6.686;2022-09-03T21:37:13;0.93;;;0.93;;
13067;SDS011;6600;51.362;6.686;2022-09-03T21:39:45;1.50;;;0.90;;
13067;SDS011;6600;51.362;6.686;2022-09-03T21:47:36;1.07;;;1.00;;
13067;SDS011;6600;51.362;6.686;2022-09-03T21:50:17;0.90;;;0.90;;
13067;SDS011;6600;51.362;6.686;2022-09-03T21:52:48;0.93;;;0.93;;
13067;SDS011;6600;51.362;6.686;2022-09-03T21:55:21;0.80;;;0.80;;
13067;SDS011;6600;51.362;6.686;2022-09-03T21:58:13;1.03;;;0.93;;
13067;SDS011;6600;51.362;6.686;2022-09-03T22:00:40;0.87;;;0.80;;
13067;SDS011;6600;51.362;6.686;2022-09-03T22:03:06;1.17;;;1.00;;
13067;SDS011;6600;51.362;6.686;2022-09-03T22:05:43;1.73;;;1.10;;